Terminal Aerodrome Forecast
Issued by NWS Sterling, VA

Current Version | Previous Version | Graphics & Text | Print | Product List | Glossary On
Versions: 1 2 3 4 5 6 7 8 9 10 11 12 13 14 15 16 17 18 19 20 21 22 23 24 25
000
FTUS41 KLWX 090900 AAA
TAFDCA
TAF AMD
KDCA 090900Z 0909/1006 24005KT P6SM SCT070
     FM091600 24007KT P6SM VCTS FEW050CB SCT070
     FM091700 22007KT P6SM VCTS BKN050CB BKN070
     FM091800 21010KT P6SM BKN050 BKN070
     FM092000 23010KT P6SM FEW050 SCT070
     FM100000 VRB03KT P6SM FEW050 SCT070=

USA.gov is the U.S. government's official web portal to all federal, state and local government web resources and services.